createdAt,value
2018-03-14T00:01:51.254Z,5.40
2018-03-14T00:04:17.736Z,5.30
2018-03-14T00:06:44.252Z,5.30
2018-03-14T00:09:11.823Z,5.30
2018-03-14T00:11:38.322Z,5.30
2018-03-14T00:14:04.946Z,5.40
2018-03-14T00:16:31.534Z,5.40
2018-03-14T00:18:58.040Z,5.40
2018-03-14T00:21:25.372Z,5.20
2018-03-14T00:23:51.895Z,5.30
2018-03-14T00:26:18.409Z,5.30
2018-03-14T00:28:45.647Z,5.30
2018-03-14T00:31:12.131Z,5.30
2018-03-14T00:33:38.723Z,5.40
2018-03-14T00:36:05.949Z,5.30
2018-03-14T00:38:32.445Z,5.30
2018-03-14T00:40:58.969Z,5.20
2018-03-14T00:43:25.487Z,5.20
2018-03-14T00:45:51.981Z,5.20
2018-03-14T00:48:18.457Z,5.30
2018-03-14T00:50:45.737Z,5.20
2018-03-14T00:53:12.244Z,5.10
2018-03-14T00:55:39.498Z,5.10
2018-03-14T00:58:06.744Z,5.50
2018-03-14T01:00:33.240Z,5.50
2018-03-14T01:02:59.743Z,5.40
2018-03-14T01:05:26.253Z,5.40
2018-03-14T01:07:53.496Z,5.60
2018-03-14T01:10:20.070Z,5.60
2018-03-14T01:12:46.565Z,5.70
2018-03-14T01:15:13.066Z,5.50
2018-03-14T01:17:39.593Z,5.30
2018-03-14T01:20:06.084Z,5.20
2018-03-14T01:22:32.588Z,5.20
2018-03-14T01:24:59.126Z,5.10
2018-03-14T01:27:25.624Z,5.10
2018-03-14T01:29:52.150Z,5.00
2018-03-14T01:32:18.649Z,4.90
2018-03-14T01:34:45.213Z,5.00
2018-03-14T01:37:11.755Z,5.20
2018-03-14T01:39:38.257Z,5.10
2018-03-14T01:42:04.744Z,5.10
2018-03-14T01:44:31.269Z,5.00
2018-03-14T01:46:57.763Z,5.00
2018-03-14T01:49:24.261Z,5.00
2018-03-14T01:51:50.778Z,4.80
2018-03-14T01:54:17.283Z,4.80
2018-03-14T01:56:43.820Z,4.70
2018-03-14T01:59:11.057Z,4.60
2018-03-14T02:01:37.527Z,4.60
2018-03-14T02:04:04.788Z,4.90
2018-03-14T02:06:31.308Z,4.90
2018-03-14T02:08:57.814Z,4.80
2018-03-14T02:11:24.308Z,4.70
2018-03-14T02:13:50.802Z,4.80
2018-03-14T02:16:18.036Z,4.70
2018-03-14T02:18:44.518Z,4.70
2018-03-14T02:21:11.039Z,4.70
2018-03-14T02:23:37.558Z,4.80
2018-03-14T02:26:04.064Z,4.70
2018-03-14T02:28:31.384Z,4.60
2018-03-14T02:30:57.891Z,4.60
2018-03-14T02:33:24.414Z,4.50
2018-03-14T02:35:51.706Z,4.40
2018-03-14T02:38:18.189Z,4.40
2018-03-14T02:40:44.681Z,4.40
2018-03-14T02:43:11.242Z,4.30
2018-03-14T02:45:37.768Z,4.30
2018-03-14T02:48:04.251Z,4.40
2018-03-14T02:50:30.745Z,4.40
2018-03-14T02:52:57.226Z,4.30
2018-03-14T02:55:23.713Z,4.20
2018-03-14T02:57:50.206Z,4.10
2018-03-14T03:00:16.756Z,4.10
2018-03-14T03:02:43.277Z,4.20
2018-03-14T03:05:10.498Z,4.20
2018-03-14T03:07:36.999Z,4.20
2018-03-14T03:10:03.572Z,4.00
2018-03-14T03:12:30.043Z,3.90
2018-03-14T03:14:57.253Z,3.80
2018-03-14T03:17:23.741Z,3.80
2018-03-14T03:19:50.226Z,3.70
2018-03-14T03:22:16.703Z,3.70
2018-03-14T03:24:43.192Z,3.80
2018-03-14T03:27:09.662Z,3.80
2018-03-14T03:29:36.870Z,4.20
2018-03-14T03:32:03.393Z,4.20
2018-03-14T03:34:29.874Z,4.30
2018-03-14T03:36:56.378Z,4.30
2018-03-14T03:39:22.876Z,4.30
2018-03-14T03:41:49.389Z,4.10
2018-03-14T03:44:15.854Z,4.10
2018-03-14T03:46:42.355Z,4.00
2018-03-14T03:49:09.582Z,4.10
2018-03-14T03:51:36.113Z,4.20
2018-03-14T03:54:02.697Z,4.00
2018-03-14T03:56:29.177Z,4.00
2018-03-14T03:58:55.660Z,3.80
2018-03-14T04:01:22.159Z,3.80
2018-03-14T04:03:48.650Z,4.10
2018-03-14T04:06:15.151Z,4.00
2018-03-14T04:08:42.387Z,3.80
2018-03-14T04:11:08.891Z,3.80
2018-03-14T04:13:35.361Z,3.70
2018-03-14T04:16:01.853Z,3.80
2018-03-14T04:18:28.332Z,3.70
2018-03-14T04:20:54.876Z,3.80
2018-03-14T04:23:22.091Z,3.90
2018-03-14T04:25:48.574Z,3.90
2018-03-14T04:28:15.802Z,4.20
2018-03-14T04:30:42.264Z,4.20
2018-03-14T04:33:08.754Z,4.20
2018-03-14T04:35:35.294Z,4.30
2018-03-14T04:38:01.779Z,4.30
2018-03-14T04:40:28.270Z,4.10
2018-03-14T04:42:54.766Z,4.00
2018-03-14T04:45:21.262Z,3.90
2018-03-14T04:47:47.804Z,3.80
2018-03-14T04:50:14.432Z,3.80
2018-03-14T04:52:40.913Z,3.70
2018-03-14T04:55:07.424Z,3.70
2018-03-14T04:57:33.922Z,3.70
2018-03-14T05:00:00.409Z,3.80
2018-03-14T05:02:26.938Z,3.90
2018-03-14T05:04:53.427Z,3.80
2018-03-14T05:07:19.938Z,3.80
2018-03-14T05:09:46.769Z,3.80
2018-03-14T05:12:13.997Z,3.70
2018-03-14T05:14:40.474Z,3.70
2018-03-14T05:17:06.959Z,3.50
2018-03-14T05:19:34.180Z,3.60
2018-03-14T05:22:00.652Z,3.50
2018-03-14T05:24:27.140Z,3.70
2018-03-14T05:26:53.787Z,3.60
2018-03-14T05:29:20.257Z,4.00
2018-03-14T05:31:46.810Z,4.10
2018-03-14T05:34:13.370Z,3.80
2018-03-14T05:36:40.641Z,3.70
2018-03-14T05:39:07.124Z,3.70
2018-03-14T05:41:33.594Z,3.80
2018-03-14T05:44:00.086Z,3.90
2018-03-14T05:46:26.586Z,4.20
2018-03-14T05:48:53.837Z,4.20
2018-03-14T05:51:20.341Z,4.10
2018-03-14T05:53:46.854Z,4.10
2018-03-14T05:56:13.495Z,3.90
2018-03-14T05:58:39.993Z,3.80
2018-03-14T06:01:07.217Z,3.90
2018-03-14T06:03:33.701Z,3.80
2018-03-14T06:06:00.199Z,3.80
2018-03-14T06:08:26.769Z,3.80
2018-03-14T06:10:53.288Z,3.80
2018-03-14T06:13:20.531Z,3.90
2018-03-14T06:15:47.049Z,3.80
2018-03-14T06:18:13.557Z,3.90
2018-03-14T06:20:40.155Z,4.00
2018-03-14T06:23:06.649Z,4.00
2018-03-14T06:25:33.184Z,4.50
2018-03-14T06:27:59.710Z,4.60
2018-03-14T06:30:26.218Z,4.60
2018-03-14T06:32:52.754Z,4.60
2018-03-14T06:35:19.295Z,4.70
2018-03-14T06:37:45.766Z,4.80
2018-03-14T06:40:12.249Z,4.80
2018-03-14T06:42:38.761Z,4.80
2018-03-14T06:45:05.262Z,4.90
2018-03-14T06:47:31.811Z,5.00
2018-03-14T06:49:58.301Z,5.20
2018-03-14T06:52:24.811Z,5.50
2018-03-14T06:54:52.058Z,5.70
2018-03-14T06:57:19.289Z,5.80
2018-03-14T06:59:57.841Z,5.80
2018-03-14T07:02:36.495Z,6.10
2018-03-14T07:05:15.030Z,6.60
2018-03-14T07:07:41.514Z,7.10
2018-03-14T07:10:08.043Z,8.00
2018-03-14T07:12:34.533Z,8.40
2018-03-14T07:15:01.003Z,9.10
2018-03-14T07:17:28.252Z,10.30
2018-03-14T07:19:55.570Z,11.40
2018-03-14T07:22:22.055Z,11.30
2018-03-14T07:24:48.543Z,11.60
2018-03-14T07:27:15.018Z,11.80
2018-03-14T07:29:42.229Z,11.80
2018-03-14T07:32:08.692Z,11.80
2018-03-14T07:34:35.173Z,11.90
2018-03-14T07:37:01.650Z,12.10
2018-03-14T07:39:28.120Z,11.50
2018-03-14T07:41:54.605Z,11.50
2018-03-14T07:44:21.822Z,12.10
2018-03-14T07:46:48.324Z,12.10
2018-03-14T07:49:15.596Z,13.00
2018-03-14T07:51:42.113Z,12.90
2018-03-14T07:54:08.635Z,12.90
2018-03-14T07:56:35.864Z,12.90
2018-03-14T07:59:02.389Z,12.90
2018-03-14T08:01:28.879Z,12.80
2018-03-14T08:03:55.433Z,13.10
2018-03-14T08:06:21.902Z,13.20
2018-03-14T08:08:48.368Z,13.00
2018-03-14T08:11:14.876Z,13.90
2018-03-14T08:13:41.460Z,13.60
2018-03-14T08:16:08.653Z,12.70
2018-03-14T08:18:35.238Z,12.70
2018-03-14T08:21:02.526Z,13.50
2018-03-14T08:23:29.010Z,13.50
2018-03-14T08:25:55.622Z,12.90
2018-03-14T08:28:22.180Z,12.00
2018-03-14T08:30:48.711Z,11.70
2018-03-14T08:33:15.244Z,11.70
2018-03-14T08:35:41.760Z,11.70
2018-03-14T08:38:08.314Z,11.50
2018-03-14T08:40:34.791Z,11.40
2018-03-14T08:43:01.259Z,11.60
2018-03-14T08:45:27.793Z,11.60
2018-03-14T08:47:55.052Z,10.90
2018-03-14T08:50:21.539Z,10.90
2018-03-14T08:52:48.882Z,11.10
2018-03-14T08:55:16.098Z,11.20
2018-03-14T08:57:42.626Z,11.10
2018-03-14T09:00:09.108Z,11.20
2018-03-14T09:02:36.329Z,11.20
2018-03-14T09:05:02.864Z,11.20
2018-03-14T09:07:29.398Z,11.10
2018-03-14T09:09:55.922Z,11.00
2018-03-14T09:12:22.531Z,11.20
2018-03-14T09:14:49.036Z,11.10
2018-03-14T09:17:15.518Z,11.00
2018-03-14T09:19:42.007Z,11.10
2018-03-14T09:22:09.312Z,11.00
2018-03-14T09:24:35.864Z,11.00
2018-03-14T09:27:02.345Z,11.00
2018-03-14T09:29:29.575Z,10.90
2018-03-14T09:31:56.080Z,10.90
2018-03-14T09:34:22.637Z,10.90
2018-03-14T09:36:49.120Z,11.00
2018-03-14T09:39:15.629Z,11.00
2018-03-14T09:41:42.872Z,10.90
2018-03-14T09:44:09.396Z,10.90
2018-03-14T09:46:35.883Z,11.00
2018-03-14T09:49:02.370Z,11.10
2018-03-14T09:51:28.973Z,11.00
2018-03-14T09:53:55.485Z,11.10
2018-03-14T09:56:21.978Z,11.30
2018-03-14T09:58:48.461Z,11.40
2018-03-14T10:01:14.932Z,11.60
2018-03-14T10:03:41.427Z,11.70
2018-03-14T10:06:07.929Z,11.90
2018-03-14T10:08:35.176Z,12.60
2018-03-14T10:11:01.661Z,12.50
2018-03-14T10:13:28.175Z,13.60
2018-03-14T10:15:54.671Z,14.30
2018-03-14T10:18:21.182Z,14.10
2018-03-14T10:20:47.703Z,13.90
2018-03-14T10:23:14.202Z,13.70
2018-03-14T10:25:41.493Z,13.30
2018-03-14T10:28:07.949Z,13.30
2018-03-14T10:30:34.472Z,12.90
2018-03-14T10:33:01.723Z,12.60
2018-03-14T10:35:29.015Z,12.50
2018-03-14T10:37:56.244Z,12.70
2018-03-14T10:40:23.450Z,13.90
2018-03-14T10:42:49.932Z,13.80
2018-03-14T10:45:16.418Z,15.30
2018-03-14T10:47:42.964Z,16.60
2018-03-14T10:50:09.540Z,17.50
2018-03-14T10:52:36.016Z,17.50
2018-03-14T10:55:02.601Z,17.30
2018-03-14T10:57:29.117Z,17.10
2018-03-14T10:59:55.635Z,15.90
2018-03-14T11:02:22.189Z,15.40
2018-03-14T11:04:48.704Z,15.10
2018-03-14T11:07:15.197Z,15.00
2018-03-14T11:09:41.686Z,15.90
2018-03-14T11:12:08.218Z,16.60
2018-03-14T11:14:34.774Z,16.90
2018-03-14T11:17:01.993Z,17.00
2018-03-14T11:19:28.504Z,17.00
2018-03-14T11:21:55.769Z,16.30
2018-03-14T11:24:22.265Z,16.30
2018-03-14T11:26:48.763Z,15.50
2018-03-14T11:29:15.305Z,15.40
2018-03-14T11:31:41.771Z,15.00
2018-03-14T11:34:08.242Z,14.90
2018-03-14T11:36:35.457Z,14.20
2018-03-14T11:39:01.950Z,14.10
2018-03-14T11:41:28.432Z,14.20
2018-03-14T11:43:54.914Z,14.50
2018-03-14T11:46:21.410Z,14.30
2018-03-14T11:48:47.895Z,14.50
2018-03-14T11:51:14.366Z,14.50
2018-03-14T11:53:40.880Z,14.40
2018-03-14T11:56:07.369Z,14.50
2018-03-14T11:58:33.946Z,14.60
2018-03-14T12:01:00.441Z,14.60
2018-03-14T12:03:26.966Z,14.70
2018-03-14T12:05:54.203Z,14.60
2018-03-14T12:08:20.726Z,14.60
2018-03-14T12:10:47.216Z,14.70
2018-03-14T12:13:13.727Z,14.40
2018-03-14T12:15:40.255Z,14.50
2018-03-14T12:18:06.743Z,14.70
2018-03-14T12:20:33.286Z,14.90
2018-03-14T12:22:59.825Z,15.00
2018-03-14T12:25:26.310Z,15.10
2018-03-14T12:27:53.542Z,15.10
2018-03-14T12:30:20.068Z,15.10
2018-03-14T12:32:46.536Z,15.20
2018-03-14T12:35:13.797Z,14.80
2018-03-14T12:37:40.303Z,14.80
2018-03-14T12:40:06.830Z,14.80
2018-03-14T12:42:33.356Z,14.60
2018-03-14T12:44:59.828Z,14.50
2018-03-14T12:47:26.355Z,14.50
2018-03-14T12:49:53.601Z,14.50
2018-03-14T12:52:20.871Z,14.30
2018-03-14T12:54:48.087Z,14.10
2018-03-14T12:57:14.600Z,14.10
2018-03-14T12:59:41.130Z,14.00
2018-03-14T13:02:07.611Z,13.90
2018-03-14T13:04:34.134Z,13.70
2018-03-14T13:07:00.660Z,13.50
2018-03-14T13:09:27.217Z,13.40
2018-03-14T13:11:53.767Z,13.40
2018-03-14T13:14:21.002Z,13.20
2018-03-14T13:16:47.586Z,13.20
2018-03-14T13:19:14.055Z,13.20
2018-03-14T13:21:40.568Z,13.20
2018-03-14T13:24:07.089Z,13.20
2018-03-14T13:26:33.618Z,13.30
2018-03-14T13:29:00.115Z,13.40
2018-03-14T13:31:26.628Z,13.80
2018-03-14T13:33:53.130Z,14.90
2018-03-14T13:36:19.606Z,16.10
2018-03-14T13:38:46.105Z,16.30
2018-03-14T13:41:12.604Z,16.30
2018-03-14T13:43:39.850Z,15.70
2018-03-14T13:46:07.102Z,15.40
2018-03-14T13:48:33.634Z,15.40
2018-03-14T13:51:00.948Z,15.30
2018-03-14T13:53:27.471Z,15.30
2018-03-14T13:55:53.953Z,15.80
2018-03-14T13:58:20.579Z,17.00
2018-03-14T14:00:47.065Z,18.50
2018-03-14T14:03:14.640Z,18.60
2018-03-14T14:05:41.154Z,18.20
2018-03-14T14:08:07.781Z,18.60
2018-03-14T14:10:35.110Z,17.50
2018-03-14T14:13:01.594Z,17.40
2018-03-14T14:15:28.151Z,17.00
2018-03-14T14:17:54.658Z,16.60
2018-03-14T14:20:21.153Z,17.00
2018-03-14T14:22:51.727Z,17.20
2018-03-14T14:25:18.280Z,17.60
2018-03-14T14:27:44.820Z,17.20
2018-03-14T14:30:11.332Z,17.70
2018-03-14T14:32:37.829Z,18.40
2018-03-14T14:35:04.322Z,18.40
2018-03-14T14:37:30.900Z,18.20
2018-03-14T14:39:57.405Z,18.80
2018-03-14T14:42:23.925Z,19.50
2018-03-14T14:44:50.414Z,18.90
2018-03-14T14:47:16.924Z,18.70
2018-03-14T14:49:43.424Z,17.90
2018-03-14T14:52:10.040Z,17.30
2018-03-14T14:54:36.712Z,16.60
2018-03-14T14:57:03.360Z,16.10
2018-03-14T14:59:29.871Z,15.40
2018-03-14T15:01:56.466Z,15.10
2018-03-14T15:04:23.857Z,14.50
2018-03-14T15:06:50.464Z,14.50
2018-03-14T15:09:17.738Z,14.10
2018-03-14T15:11:44.221Z,14.10
2018-03-14T15:14:10.712Z,14.00
2018-03-14T15:16:37.268Z,14.00
2018-03-14T15:19:03.914Z,13.70
2018-03-14T15:21:30.429Z,13.60
2018-03-14T15:23:57.071Z,13.40
2018-03-14T15:26:23.722Z,13.30
2018-03-14T15:28:50.262Z,13.30
2018-03-14T15:31:16.759Z,13.20
2018-03-14T15:33:43.417Z,13.10
2018-03-14T15:36:10.040Z,12.90
2018-03-14T15:38:36.690Z,13.00
2018-03-14T15:41:03.284Z,12.90
2018-03-14T15:43:29.841Z,12.80
2018-03-14T15:45:57.179Z,12.60
2018-03-14T15:48:23.799Z,12.60
2018-03-14T15:50:50.375Z,12.30
2018-03-14T15:53:17.710Z,12.30
2018-03-14T15:55:44.198Z,12.30
2018-03-14T15:58:10.849Z,12.30
2018-03-14T16:00:37.384Z,12.30
2018-03-14T16:03:04.023Z,12.30
2018-03-14T16:05:30.619Z,12.20
2018-03-14T16:07:57.223Z,12.20
2018-03-14T16:10:23.729Z,12.10
2018-03-14T16:12:50.263Z,12.10
2018-03-14T16:15:17.483Z,12.10
2018-03-14T16:17:44.007Z,12.00
2018-03-14T16:20:10.559Z,11.90
2018-03-14T16:22:37.059Z,11.90
2018-03-14T16:25:03.667Z,11.90
2018-03-14T16:27:30.258Z,11.80
2018-03-14T16:29:57.565Z,11.50
2018-03-14T16:32:24.216Z,11.50
2018-03-14T16:34:50.728Z,11.40
2018-03-14T16:37:17.419Z,11.30
2018-03-14T16:39:43.938Z,11.30
2018-03-14T16:42:10.617Z,11.30
2018-03-14T16:44:37.256Z,11.30
2018-03-14T16:47:03.794Z,11.30
2018-03-14T16:49:30.414Z,11.30
2018-03-14T16:51:57.840Z,11.30
2018-03-14T16:54:24.370Z,11.20
2018-03-14T16:56:50.853Z,11.20
2018-03-14T16:59:17.398Z,11.10
2018-03-14T17:01:43.949Z,11.20
2018-03-14T17:04:11.488Z,11.10
2018-03-14T17:06:38.010Z,11.10
2018-03-14T17:09:04.743Z,11.00
2018-03-14T17:11:32.032Z,10.90
2018-03-14T17:13:58.514Z,10.90
2018-03-14T17:16:25.156Z,10.80
2018-03-14T17:18:51.722Z,10.70
2018-03-14T17:21:18.457Z,10.60
2018-03-14T17:23:45.075Z,10.50
2018-03-14T17:26:12.835Z,10.50
2018-03-14T17:28:39.452Z,10.40
2018-03-14T17:31:06.038Z,10.50
2018-03-14T17:33:32.526Z,10.50
2018-03-14T17:35:58.996Z,10.50
2018-03-14T17:38:26.230Z,10.40
2018-03-14T17:40:52.697Z,10.40
2018-03-14T17:43:19.269Z,10.30
2018-03-14T17:45:45.801Z,10.30
2018-03-14T17:48:12.279Z,10.10
2018-03-14T17:50:38.777Z,10.00
2018-03-14T17:53:06.193Z,9.90
2018-03-14T17:55:32.727Z,9.90
2018-03-14T17:57:59.943Z,10.00
2018-03-14T18:00:27.235Z,10.00
2018-03-14T18:02:53.747Z,10.00
2018-03-14T18:05:20.978Z,10.00
2018-03-14T18:07:47.458Z,10.00
2018-03-14T18:10:13.938Z,10.00
2018-03-14T18:12:40.406Z,10.00
2018-03-14T18:15:07.698Z,9.90
2018-03-14T18:17:34.197Z,9.90
2018-03-14T18:20:00.720Z,9.90
2018-03-14T18:22:27.250Z,9.80
2018-03-14T18:24:53.783Z,9.80
2018-03-14T18:27:20.266Z,9.80
2018-03-14T18:29:46.830Z,9.70
2018-03-14T18:32:13.308Z,9.80
2018-03-14T18:34:40.573Z,9.70
2018-03-14T18:37:07.798Z,9.70
2018-03-14T18:39:34.288Z,9.70
2018-03-14T18:42:00.921Z,9.70
2018-03-14T18:44:27.627Z,9.60
2018-03-14T18:46:54.276Z,9.60
2018-03-14T18:49:20.859Z,9.50
2018-03-14T18:51:47.515Z,9.50
2018-03-14T18:54:14.131Z,9.50
2018-03-14T18:56:40.800Z,9.50
2018-03-14T18:59:07.275Z,9.40
2018-03-14T19:01:33.768Z,9.40
2018-03-14T19:04:00.455Z,9.30
2018-03-14T19:06:27.064Z,9.30
2018-03-14T19:08:54.301Z,9.10
2018-03-14T19:11:20.915Z,9.10
2018-03-14T19:13:48.165Z,9.00
2018-03-14T19:16:14.671Z,9.00
2018-03-14T19:18:42.033Z,8.70
2018-03-14T19:21:08.588Z,8.70
2018-03-14T19:23:35.146Z,8.60
2018-03-14T19:26:01.707Z,8.60
2018-03-14T19:28:29.036Z,8.50
2018-03-14T19:30:55.655Z,8.50
2018-03-14T19:33:22.165Z,8.40
2018-03-14T19:35:48.684Z,8.40
2018-03-14T19:38:15.365Z,8.40
2018-03-14T19:40:41.990Z,8.40
2018-03-14T19:43:08.548Z,8.40
2018-03-14T19:45:35.178Z,8.40
2018-03-14T19:48:01.704Z,8.40
2018-03-14T19:50:28.230Z,8.40
2018-03-14T19:52:55.002Z,8.40
2018-03-14T19:55:21.513Z,8.30
2018-03-14T19:57:48.130Z,8.40
2018-03-14T20:00:14.836Z,8.30
2018-03-14T20:02:41.414Z,8.30
2018-03-14T20:05:08.022Z,8.30
2018-03-14T20:07:35.441Z,8.40
2018-03-14T20:10:02.312Z,8.40
2018-03-14T20:12:28.894Z,8.40
2018-03-14T20:14:55.495Z,8.40
2018-03-14T20:17:22.784Z,8.00
2018-03-14T20:19:49.327Z,8.00
2018-03-14T20:22:15.936Z,8.00
2018-03-14T20:24:43.368Z,7.90
2018-03-14T20:27:10.007Z,7.90
2018-03-14T20:29:36.647Z,7.90
2018-03-14T20:32:03.942Z,7.80
2018-03-14T20:34:30.588Z,7.80
2018-03-14T20:36:57.177Z,7.70
2018-03-14T20:39:23.817Z,7.80
2018-03-14T20:41:50.390Z,7.80
2018-03-14T20:44:17.499Z,7.70
2018-03-14T20:46:44.140Z,7.60
2018-03-14T20:49:10.777Z,7.60
2018-03-14T20:51:37.349Z,7.60
2018-03-14T20:54:03.954Z,7.60
2018-03-14T20:56:30.487Z,7.70
2018-03-14T20:58:57.883Z,7.60
2018-03-14T21:01:24.480Z,7.60
2018-03-14T21:03:51.125Z,7.70
2018-03-14T21:06:17.760Z,7.60
2018-03-14T21:08:44.415Z,7.60
2018-03-14T21:11:11.138Z,7.50
2018-03-14T21:13:37.673Z,7.50
2018-03-14T21:16:04.413Z,7.50
2018-03-14T21:18:31.109Z,7.50
2018-03-14T21:20:57.610Z,7.50
2018-03-14T21:23:24.226Z,7.40
2018-03-14T21:25:50.874Z,7.50
2018-03-14T21:28:18.241Z,7.50
2018-03-14T21:30:44.959Z,7.50
2018-03-14T21:33:11.699Z,7.50
2018-03-14T21:35:38.197Z,7.40
2018-03-14T21:38:04.694Z,7.50
2018-03-14T21:40:31.195Z,7.50
2018-03-14T21:42:57.675Z,7.40
2018-03-14T21:45:24.293Z,7.40
2018-03-14T21:47:50.814Z,7.50
2018-03-14T21:50:17.376Z,7.40
2018-03-14T21:52:43.860Z,7.40
2018-03-14T21:55:11.116Z,7.30
2018-03-14T21:57:37.606Z,7.30
2018-03-14T22:00:04.134Z,7.20
2018-03-14T22:02:30.675Z,7.20
2018-03-14T22:04:57.173Z,7.20
2018-03-14T22:07:23.853Z,7.30
2018-03-14T22:09:50.382Z,7.20
2018-03-14T22:12:16.878Z,7.20
2018-03-14T22:14:43.385Z,7.10
2018-03-14T22:17:09.882Z,7.10
2018-03-14T22:19:37.148Z,7.00
2018-03-14T22:22:04.399Z,7.00
2018-03-14T22:24:30.909Z,7.00
2018-03-14T22:26:57.498Z,7.00
2018-03-14T22:29:23.966Z,6.90
2018-03-14T22:31:50.525Z,6.90
2018-03-14T22:34:17.781Z,6.90
2018-03-14T22:36:44.330Z,6.90
2018-03-14T22:39:10.840Z,6.90
2018-03-14T22:41:38.064Z,6.80
2018-03-14T22:44:04.550Z,6.80
2018-03-14T22:46:31.038Z,6.80
2018-03-14T22:48:58.995Z,6.80
2018-03-14T22:51:25.505Z,6.80
2018-03-14T22:53:51.998Z,6.80
2018-03-14T22:56:18.513Z,6.80
2018-03-14T22:58:45.006Z,6.70
2018-03-14T23:01:11.568Z,6.80
2018-03-14T23:03:38.065Z,6.70
2018-03-14T23:06:04.548Z,6.80
2018-03-14T23:08:31.104Z,6.70
2018-03-14T23:10:57.624Z,6.70
2018-03-14T23:13:24.096Z,6.70
2018-03-14T23:15:50.592Z,6.70
2018-03-14T23:18:17.122Z,6.60
2018-03-14T23:20:43.626Z,6.60
2018-03-14T23:23:10.099Z,6.70
2018-03-14T23:25:36.581Z,6.60
2018-03-14T23:28:03.184Z,6.60
2018-03-14T23:30:29.659Z,6.60
2018-03-14T23:32:56.160Z,6.60
2018-03-14T23:35:22.623Z,6.50
2018-03-14T23:37:49.151Z,6.50
2018-03-14T23:40:15.653Z,6.60
2018-03-14T23:42:42.135Z,6.60
2018-03-14T23:45:08.623Z,6.60
2018-03-14T23:47:35.141Z,6.60
2018-03-14T23:50:01.656Z,6.60
2018-03-14T23:52:28.167Z,6.60
2018-03-14T23:54:54.697Z,6.60
2018-03-14T23:57:21.191Z,6.60
2018-03-14T23:59:47.690Z,6.70
